createdAt,value
2018-02-14T00:00:36.945Z,98435.16
2018-02-14T00:03:04.387Z,98441.38
2018-02-14T00:05:31.821Z,98440.61
2018-02-14T00:07:59.241Z,98438.92
2018-02-14T00:10:26.664Z,98439.85
2018-02-14T00:12:54.078Z,98442.27
2018-02-14T00:15:21.515Z,98445.27
2018-02-14T00:17:48.924Z,98442.06
2018-02-14T00:20:16.349Z,98442.94
2018-02-14T00:22:43.766Z,98445.98
2018-02-14T00:25:11.190Z,98452.21
2018-02-14T00:27:39.093Z,98452.14
2018-02-14T00:30:06.518Z,98451.36
2018-02-14T00:32:33.951Z,98455.13
2018-02-14T00:35:01.370Z,98456.46
2018-02-14T00:37:28.878Z,98458.09
2018-02-14T00:39:56.314Z,98458.14
2018-02-14T00:42:23.730Z,98461.98
2018-02-14T00:44:51.154Z,98464.29
2018-02-14T00:47:18.570Z,98463.16
2018-02-14T00:49:45.970Z,98467.06
2018-02-14T00:52:13.394Z,98470.08
2018-02-14T00:54:40.820Z,98470.84
2018-02-14T00:57:08.242Z,98469.11
2018-02-14T00:59:35.655Z,98472.48
2018-02-14T01:02:03.088Z,98473.02
2018-02-14T01:04:30.514Z,98469.06
2018-02-14T01:06:57.959Z,98467.72
2018-02-14T01:09:25.479Z,98475.44
2018-02-14T01:11:52.910Z,98473.48
2018-02-14T01:14:20.319Z,98485.07
2018-02-14T01:16:47.743Z,98480.23
2018-02-14T01:19:17.145Z,98485.13
2018-02-14T01:21:50.478Z,98476.98
2018-02-14T01:24:17.900Z,98480.22
2018-02-14T01:26:45.313Z,98485.26
2018-02-14T01:29:12.730Z,98486.25
2018-02-14T01:31:40.161Z,98489.42
2018-02-14T01:34:08.068Z,98489.19
2018-02-14T01:36:35.491Z,98489.05
2018-02-14T01:39:02.926Z,98485.45
2018-02-14T01:41:30.364Z,98487.58
2018-02-14T01:43:57.841Z,98486.47
2018-02-14T01:46:25.360Z,98488.06
2018-02-14T01:48:52.798Z,98492.10
2018-02-14T01:51:20.237Z,98494.08
2018-02-14T01:53:47.653Z,98492.80
2018-02-14T01:56:15.052Z,98493.70
2018-02-14T01:58:42.767Z,98487.88
2018-02-14T02:01:10.197Z,98501.04
2018-02-14T02:03:37.615Z,98509.13
2018-02-14T02:06:05.030Z,98512.64
2018-02-14T02:11:05.229Z,98513.38
2018-02-14T02:13:32.658Z,98513.64
2018-02-14T02:16:00.070Z,98515.69
2018-02-14T02:18:27.474Z,98504.81
2018-02-14T02:20:54.954Z,98512.42
2018-02-14T02:23:22.372Z,98513.20
2018-02-14T02:25:49.834Z,98509.25
2018-02-14T02:28:17.269Z,98510.97
2018-02-14T02:30:44.689Z,98509.69
2018-02-14T02:33:12.135Z,98514.09
2018-02-14T02:35:39.557Z,98517.08
2018-02-14T02:38:06.983Z,98520.77
2018-02-14T02:40:34.436Z,98518.34
2018-02-14T02:43:01.854Z,98520.87
2018-02-14T02:45:29.265Z,98521.78
2018-02-14T02:47:56.695Z,98522.09
2018-02-14T02:50:24.118Z,98522.20
2018-02-14T02:52:51.547Z,98528.20
2018-02-14T02:55:18.953Z,98525.91
2018-02-14T02:57:46.424Z,98522.86
2018-02-14T03:00:13.914Z,98518.20
2018-02-14T03:02:41.333Z,98520.81
2018-02-14T03:05:08.755Z,98517.72
2018-02-14T03:07:36.184Z,98523.37
2018-02-14T03:10:03.629Z,98523.56
2018-02-14T03:12:31.051Z,98528.68
2018-02-14T03:14:58.533Z,98530.08
2018-02-14T03:17:25.987Z,98539.65
2018-02-14T03:19:53.459Z,98539.66
2018-02-14T03:22:20.876Z,98542.08
2018-02-14T03:24:48.315Z,98542.81
2018-02-14T03:27:16.757Z,98545.36
2018-02-14T03:29:44.174Z,98557.02
2018-02-14T03:32:11.589Z,98561.72
2018-02-14T03:34:39.046Z,98557.73
2018-02-14T03:37:06.462Z,98560.08
2018-02-14T03:39:33.887Z,98566.66
2018-02-14T03:42:01.314Z,98564.73
2018-02-14T03:44:28.748Z,98568.83
2018-02-14T03:46:56.170Z,98569.98
2018-02-14T03:49:23.599Z,98580.08
2018-02-14T03:51:51.038Z,98581.33
2018-02-14T03:54:18.475Z,98584.94
2018-02-14T03:56:45.904Z,98588.37
2018-02-14T03:59:13.337Z,98585.84
2018-02-14T04:01:40.862Z,98587.69
2018-02-14T04:04:08.288Z,98589.62
2018-02-14T04:06:35.810Z,98601.41
2018-02-14T04:09:03.223Z,98605.42
2018-02-14T04:11:30.652Z,98612.34
2018-02-14T04:13:58.060Z,98614.64
2018-02-14T04:16:25.529Z,98625.05
2018-02-14T04:18:52.966Z,98631.22
2018-02-14T04:21:20.440Z,98637.55
2018-02-14T04:23:47.889Z,98640.16
2018-02-14T04:26:15.345Z,98645.83
2018-02-14T04:28:42.779Z,98641.72
2018-02-14T04:31:10.422Z,98643.97
2018-02-14T04:33:37.905Z,98643.81
2018-02-14T04:36:05.341Z,98646.69
2018-02-14T04:38:32.791Z,98648.20
2018-02-14T04:41:00.668Z,98654.22
2018-02-14T04:43:28.092Z,98655.00
2018-02-14T04:45:55.538Z,98658.80
2018-02-14T04:48:22.954Z,98662.68
2018-02-14T04:50:50.837Z,98666.45
2018-02-14T04:53:18.260Z,98667.77
2018-02-14T04:55:45.691Z,98669.56
2018-02-14T04:58:13.111Z,98670.91
2018-02-14T05:00:40.537Z,98674.45
2018-02-14T05:03:07.963Z,98673.75
2018-02-14T05:05:35.442Z,98674.87
2018-02-14T05:08:02.887Z,98677.95
2018-02-14T05:10:30.336Z,98673.95
2018-02-14T05:12:57.764Z,98665.48
2018-02-14T05:15:25.183Z,98671.15
2018-02-14T05:17:52.629Z,98679.54
2018-02-14T05:20:20.053Z,98677.28
2018-02-14T05:22:47.505Z,98681.27
2018-02-14T05:25:14.970Z,98685.25
2018-02-14T05:27:42.403Z,98695.72
2018-02-14T05:30:09.826Z,98692.38
2018-02-14T05:32:37.302Z,98694.80
2018-02-14T05:35:04.791Z,98699.70
2018-02-14T05:37:32.212Z,98701.83
2018-02-14T05:39:59.705Z,98707.04
2018-02-14T05:42:27.135Z,98704.55
2018-02-14T05:44:54.542Z,98708.79
2018-02-14T05:47:21.980Z,98709.05
2018-02-14T05:49:49.403Z,98709.50
2018-02-14T05:52:16.826Z,98713.00
2018-02-14T05:54:44.257Z,98719.38
2018-02-14T05:57:11.718Z,98724.94
2018-02-14T05:59:39.143Z,98728.95
2018-02-14T06:02:06.571Z,98731.48
2018-02-14T06:04:33.974Z,98728.66
2018-02-14T06:07:01.406Z,98736.76
2018-02-14T06:09:28.849Z,98741.63
2018-02-14T06:11:56.270Z,98738.27
2018-02-14T06:14:23.828Z,98746.43
2018-02-14T06:16:51.244Z,98752.77
2018-02-14T06:19:18.684Z,98751.98
2018-02-14T06:21:46.224Z,98755.25
2018-02-14T06:24:13.679Z,98755.72
2018-02-14T06:26:41.129Z,98764.08
2018-02-14T06:29:08.553Z,98766.87
2018-02-14T06:31:35.965Z,98776.17
2018-02-14T06:34:03.394Z,98776.48
2018-02-14T06:36:30.826Z,98786.50
2018-02-14T06:38:58.302Z,98790.58
2018-02-14T06:41:25.725Z,98792.44
2018-02-14T06:43:53.153Z,98804.69
2018-02-14T06:46:20.578Z,98801.34
2018-02-14T06:48:48.000Z,98806.72
2018-02-14T06:51:15.400Z,98813.55
2018-02-14T06:53:42.911Z,98820.88
2018-02-14T06:56:10.294Z,98810.34
2018-02-14T06:58:37.716Z,98815.58
2018-02-14T07:01:05.169Z,98814.45
2018-02-14T07:03:32.625Z,98818.47
2018-02-14T07:06:00.055Z,98814.34
2018-02-14T07:08:27.502Z,98821.18
2018-02-14T07:10:55.498Z,98821.92
2018-02-14T07:13:22.921Z,98826.43
2018-02-14T07:15:50.351Z,98829.64
2018-02-14T07:18:17.785Z,98835.48
2018-02-14T07:20:45.195Z,98827.51
2018-02-14T07:23:12.609Z,98841.15
2018-02-14T07:25:40.034Z,98837.62
2018-02-14T07:28:07.478Z,98843.23
2018-02-14T07:30:34.896Z,98837.59
2018-02-14T07:33:02.303Z,98840.38
2018-02-14T07:35:29.730Z,98841.80
2018-02-14T07:37:57.146Z,98839.37
2018-02-14T07:40:24.586Z,98845.40
2018-02-14T07:42:52.024Z,98846.62
2018-02-14T07:45:19.534Z,98852.97
2018-02-14T07:47:47.061Z,98859.65
2018-02-14T07:50:14.513Z,98856.70
2018-02-14T07:52:41.932Z,98855.20
2018-02-14T07:55:09.354Z,98856.44
2018-02-14T07:57:36.807Z,98859.72
2018-02-14T08:00:04.234Z,98870.09
2018-02-14T08:02:31.673Z,98870.64
2018-02-14T08:04:59.092Z,98878.27
2018-02-14T08:07:27.220Z,98873.39
2018-02-14T08:09:54.679Z,98882.56
2018-02-14T08:12:22.084Z,98879.52
2018-02-14T08:14:49.535Z,98879.08
2018-02-14T08:17:16.954Z,98872.95
2018-02-14T08:19:44.453Z,98870.00
2018-02-14T08:22:11.873Z,98875.36
2018-02-14T08:24:39.299Z,98878.27
2018-02-14T08:27:06.732Z,98878.53
2018-02-14T08:29:34.141Z,98882.70
2018-02-14T08:32:01.562Z,98877.01
2018-02-14T08:34:29.021Z,98890.95
2018-02-14T08:36:56.480Z,98893.31
2018-02-14T08:39:23.973Z,98895.26
2018-02-14T08:41:51.404Z,98899.17
2018-02-14T08:44:18.830Z,98906.62
2018-02-14T08:46:46.332Z,98909.05
2018-02-14T08:49:13.746Z,98907.88
2018-02-14T08:51:41.162Z,98909.63
2018-02-14T08:54:08.629Z,98903.11
2018-02-14T08:56:36.046Z,98909.27
2018-02-14T08:59:03.513Z,98910.41
2018-02-14T09:01:30.976Z,98911.38
2018-02-14T09:03:58.812Z,98910.12
2018-02-14T09:06:26.274Z,98915.10
2018-02-14T09:08:53.702Z,98920.00
2018-02-14T09:11:21.172Z,98921.22
2018-02-14T09:13:48.590Z,98920.52
2018-02-14T09:16:16.039Z,98924.50
2018-02-14T09:18:43.449Z,98922.16
2018-02-14T09:21:10.865Z,98923.88
2018-02-14T09:23:38.329Z,98919.08
2018-02-14T09:26:05.750Z,98913.04
2018-02-14T09:28:33.219Z,98919.02
2018-02-14T09:31:00.678Z,98914.03
2018-02-14T09:33:28.093Z,98905.81
2018-02-14T09:35:55.524Z,98906.28
2018-02-14T09:38:23.045Z,98898.72
2018-02-14T09:40:50.474Z,98902.17
2018-02-14T09:43:17.992Z,98895.93
2018-02-14T09:45:45.457Z,98902.94
2018-02-14T09:48:12.864Z,98907.87
2018-02-14T09:50:40.290Z,98924.25
2018-02-14T09:53:07.716Z,98923.59
2018-02-14T09:55:35.123Z,98919.67
2018-02-14T09:58:02.551Z,98926.48
2018-02-14T10:00:30.698Z,98926.56
2018-02-14T10:02:58.121Z,98928.52
2018-02-14T10:05:25.541Z,98923.19
2018-02-14T10:07:52.977Z,98926.36
2018-02-14T10:10:20.385Z,98933.52
2018-02-14T10:12:47.815Z,98943.76
2018-02-14T10:15:15.225Z,98944.33
2018-02-14T10:17:42.657Z,98943.12
2018-02-14T10:20:10.100Z,98935.83
2018-02-14T10:22:37.525Z,98938.00
2018-02-14T10:25:04.937Z,98939.28
2018-02-14T10:27:32.354Z,98934.30
2018-02-14T10:29:59.789Z,98943.01
2018-02-14T10:32:27.302Z,98938.56
2018-02-14T10:34:55.688Z,98945.72
2018-02-14T10:37:23.104Z,98946.75
2018-02-14T10:39:50.531Z,98947.55
2018-02-14T10:42:17.946Z,98946.66
2018-02-14T10:44:45.406Z,98945.67
2018-02-14T10:47:12.829Z,98938.24
2018-02-14T10:49:40.245Z,98934.47
2018-02-14T10:52:07.674Z,98944.81
2018-02-14T10:54:35.094Z,98942.19
2018-02-14T10:57:02.611Z,98948.42
2018-02-14T10:59:30.035Z,98945.45
2018-02-14T11:02:13.108Z,98954.44
2018-02-14T11:04:46.144Z,98943.88
2018-02-14T11:07:19.351Z,98948.34
2018-02-14T11:09:46.917Z,98956.81
2018-02-14T11:12:14.329Z,98961.17
2018-02-14T11:14:41.748Z,98944.68
2018-02-14T11:17:09.252Z,98945.62
2018-02-14T11:19:36.689Z,98944.33
2018-02-14T11:22:04.173Z,98941.31
2018-02-14T11:24:31.582Z,98940.03
2018-02-14T11:26:59.032Z,98940.33
2018-02-14T11:29:26.456Z,98930.36
2018-02-14T11:31:53.862Z,98928.48
2018-02-14T11:34:21.291Z,98925.45
2018-02-14T11:36:48.697Z,98925.38
2018-02-14T11:39:16.133Z,98933.14
2018-02-14T11:41:43.570Z,98930.98
2018-02-14T11:44:11.021Z,98923.91
2018-02-14T11:46:38.430Z,98921.38
2018-02-14T11:49:05.898Z,98920.41
2018-02-14T11:51:34.354Z,98926.20
2018-02-14T11:54:01.773Z,98919.73
2018-02-14T11:56:29.240Z,98917.34
2018-02-14T11:58:56.662Z,98917.73
2018-02-14T12:01:24.104Z,98920.70
2018-02-14T12:03:51.527Z,98923.16
2018-02-14T12:06:18.949Z,98923.13
2018-02-14T12:08:46.394Z,98922.47
2018-02-14T12:11:13.846Z,98919.50
2018-02-14T12:13:41.259Z,98917.27
2018-02-14T12:16:08.675Z,98912.38
2018-02-14T12:18:36.098Z,98917.63
2018-02-14T12:21:03.514Z,98910.80
2018-02-14T12:23:30.949Z,98910.83
2018-02-14T12:25:58.364Z,98909.50
2018-02-14T12:28:25.907Z,98903.70
2018-02-14T12:30:53.328Z,98905.56
2018-02-14T12:33:20.740Z,98904.65
2018-02-14T12:35:48.223Z,98901.78
2018-02-14T12:38:15.745Z,98904.00
2018-02-14T12:40:43.169Z,98903.35
2018-02-14T12:43:10.639Z,98895.11
2018-02-14T12:45:38.064Z,98895.67
2018-02-14T12:48:06.161Z,98889.92
2018-02-14T12:50:33.662Z,98895.27
2018-02-14T12:53:01.084Z,98893.38
2018-02-14T12:55:28.559Z,98895.07
2018-02-14T12:57:55.965Z,98895.84
2018-02-14T13:00:23.406Z,98887.66
2018-02-14T13:02:50.850Z,98889.88
2018-02-14T13:05:18.363Z,98887.34
2018-02-14T13:07:45.794Z,98892.16
2018-02-14T13:10:13.217Z,98885.84
2018-02-14T13:12:40.648Z,98883.90
2018-02-14T13:15:08.188Z,98873.70
2018-02-14T13:17:35.729Z,98873.24
2018-02-14T13:20:03.154Z,98872.20
2018-02-14T13:22:30.616Z,98874.94
2018-02-14T13:24:58.117Z,98875.44
2018-02-14T13:27:25.524Z,98866.91
2018-02-14T13:29:53.795Z,98872.34
2018-02-14T13:32:21.205Z,98874.41
2018-02-14T13:34:48.661Z,98876.31
2018-02-14T13:37:16.082Z,98881.30
2018-02-14T13:39:43.543Z,98881.45
2018-02-14T13:42:11.028Z,98876.77
2018-02-14T13:44:38.444Z,98879.56
2018-02-14T13:47:05.860Z,98878.95
2018-02-14T13:49:33.271Z,98879.89
2018-02-14T13:52:00.706Z,98881.28
2018-02-14T13:54:28.105Z,98877.17
2018-02-14T13:56:55.533Z,98876.67
2018-02-14T13:59:22.985Z,98878.22
2018-02-14T14:01:50.397Z,98884.27
2018-02-14T14:04:17.904Z,98885.09
2018-02-14T14:06:45.353Z,98881.81
2018-02-14T14:09:12.807Z,98880.98
2018-02-14T14:11:40.229Z,98882.67
2018-02-14T14:14:07.665Z,98879.05
2018-02-14T14:16:35.080Z,98879.61
2018-02-14T14:19:02.498Z,98878.30
2018-02-14T14:21:29.918Z,98881.55
2018-02-14T14:23:57.339Z,98880.93
2018-02-14T14:26:24.767Z,98879.90
2018-02-14T14:28:52.265Z,98883.97
2018-02-14T14:31:19.668Z,98891.24
2018-02-14T14:33:47.108Z,98893.66
2018-02-14T14:36:14.533Z,98894.00
2018-02-14T14:38:41.948Z,98893.53
2018-02-14T14:41:10.476Z,98897.45
2018-02-14T14:43:37.902Z,98894.56
2018-02-14T14:46:05.310Z,98888.39
2018-02-14T14:48:32.812Z,98890.34
2018-02-14T14:51:00.210Z,98893.39
2018-02-14T14:53:27.630Z,98888.30
2018-02-14T14:55:55.081Z,98889.39
2018-02-14T14:58:22.502Z,98891.97
2018-02-14T15:00:49.912Z,98890.61
2018-02-14T15:03:17.327Z,98886.11
2018-02-14T15:05:44.742Z,98889.91
2018-02-14T15:08:12.162Z,98895.13
2018-02-14T15:10:39.570Z,98896.33
2018-02-14T15:13:06.989Z,98895.84
2018-02-14T15:15:34.400Z,98890.48
2018-02-14T15:18:01.817Z,98896.22
2018-02-14T15:20:29.246Z,98895.45
2018-02-14T15:22:56.769Z,98895.12
2018-02-14T15:25:24.183Z,98900.05
2018-02-14T15:27:51.604Z,98899.78
2018-02-14T15:30:19.020Z,98886.85
2018-02-14T15:32:46.485Z,98888.30
2018-02-14T15:35:13.953Z,98885.06
2018-02-14T15:37:42.310Z,98888.81
2018-02-14T15:40:09.769Z,98891.13
2018-02-14T15:42:37.176Z,98895.30
2018-02-14T15:45:04.591Z,98894.24
2018-02-14T15:47:31.994Z,98897.76
2018-02-14T15:49:59.421Z,98893.18
2018-02-14T15:52:26.833Z,98887.78
2018-02-14T15:54:54.248Z,98879.55
2018-02-14T15:57:21.661Z,98872.79
2018-02-14T15:59:49.129Z,98878.63
2018-02-14T16:02:16.477Z,98871.11
2018-02-14T16:04:44.065Z,98884.45
2018-02-14T16:07:11.536Z,98892.30
2018-02-14T16:09:39.023Z,98896.28
2018-02-14T16:12:06.427Z,98907.91
2018-02-14T16:14:33.868Z,98902.77
2018-02-14T16:17:01.294Z,98904.68
2018-02-14T16:19:28.792Z,98898.61
2018-02-14T16:21:56.216Z,98902.66
2018-02-14T16:24:23.669Z,98908.98
2018-02-14T16:26:51.117Z,98911.23
2018-02-14T16:29:18.601Z,98917.14
2018-02-14T16:31:46.015Z,98919.16
2018-02-14T16:34:13.429Z,98929.09
2018-02-14T16:36:40.866Z,98924.30
2018-02-14T16:39:08.303Z,98920.84
2018-02-14T16:41:35.709Z,98937.84
2018-02-14T16:44:03.134Z,98934.69
2018-02-14T16:46:30.557Z,98932.89
2018-02-14T16:48:57.990Z,98936.53
2018-02-14T16:51:25.404Z,98937.41
2018-02-14T16:53:52.805Z,98946.55
2018-02-14T16:56:20.230Z,98932.85
2018-02-14T16:58:47.650Z,98942.20
2018-02-14T17:01:15.071Z,98939.37
2018-02-14T17:03:42.535Z,98942.30
2018-02-14T17:06:10.029Z,98941.38
2018-02-14T17:08:37.440Z,98948.83
2018-02-14T17:11:04.872Z,98947.25
2018-02-14T17:13:32.293Z,98945.20
2018-02-14T17:15:59.706Z,98941.91
2018-02-14T17:18:27.205Z,98942.06
2018-02-14T17:20:54.633Z,98941.91
2018-02-14T17:23:22.094Z,98939.41
2018-02-14T17:25:49.550Z,98941.55
2018-02-14T17:28:17.747Z,98947.61
2018-02-14T17:30:45.165Z,98954.48
2018-02-14T17:33:12.624Z,98962.59
2018-02-14T17:35:40.041Z,98971.28
2018-02-14T17:38:07.449Z,98974.48
2018-02-14T17:40:34.858Z,98966.86
2018-02-14T17:43:02.330Z,98973.14
2018-02-14T17:45:29.764Z,98974.76
2018-02-14T17:47:57.237Z,98966.75
2018-02-14T17:50:24.671Z,98968.28
2018-02-14T17:52:52.135Z,98978.05
2018-02-14T17:55:19.585Z,98970.38
2018-02-14T17:57:46.990Z,98964.05
2018-02-14T18:00:14.409Z,98965.46
2018-02-14T18:02:41.860Z,98971.34
2018-02-14T18:05:09.259Z,98974.91
2018-02-14T18:07:36.668Z,98980.97
2018-02-14T18:10:04.095Z,98988.78
2018-02-14T18:12:31.514Z,98979.64
2018-02-14T18:14:58.936Z,98985.98
2018-02-14T18:17:26.366Z,98987.13
2018-02-14T18:19:53.764Z,98983.87
2018-02-14T18:22:21.173Z,98984.41
2018-02-14T18:24:48.581Z,98992.69
2018-02-14T18:27:16.112Z,98990.23
2018-02-14T18:29:43.557Z,98988.16
2018-02-14T18:32:10.976Z,98997.74
2018-02-14T18:34:38.386Z,99001.48
2018-02-14T18:37:05.838Z,99010.81
2018-02-14T18:39:33.228Z,99010.96
2018-02-14T18:42:00.648Z,99008.75
2018-02-14T18:44:28.084Z,99011.39
2018-02-14T18:46:55.501Z,99010.55
2018-02-14T18:49:22.913Z,99010.16
2018-02-14T18:51:50.401Z,99015.77
2018-02-14T18:54:17.809Z,99017.93
2018-02-14T18:56:45.237Z,99017.14
2018-02-14T18:59:12.650Z,99013.75
2018-02-14T19:01:40.102Z,99014.33
2018-02-14T19:04:07.505Z,99018.72
2018-02-14T19:06:34.942Z,99012.82
2018-02-14T19:09:02.393Z,99017.34
2018-02-14T19:11:29.806Z,99023.81
2018-02-14T19:13:57.312Z,99021.48
2018-02-14T19:16:24.735Z,99016.12
2018-02-14T19:18:52.929Z,99013.23
2018-02-14T19:21:20.376Z,99020.61
2018-02-14T19:23:47.779Z,99019.63
2018-02-14T19:26:15.185Z,99007.65
2018-02-14T19:28:42.626Z,99015.16
2018-02-14T19:31:10.073Z,99009.69
2018-02-14T19:33:37.494Z,99015.07
2018-02-14T19:36:04.985Z,99021.36
2018-02-14T19:38:32.418Z,99018.98
2018-02-14T19:40:59.851Z,99021.44
2018-02-14T19:43:27.272Z,99026.63
2018-02-14T19:45:54.699Z,99034.10
2018-02-14T19:48:22.119Z,99029.58
2018-02-14T19:50:49.569Z,99035.07
2018-02-14T19:53:17.005Z,99030.12
2018-02-14T19:55:44.409Z,99041.20
2018-02-14T19:58:11.836Z,99050.63
2018-02-14T20:00:39.257Z,99043.45
2018-02-14T20:03:06.766Z,99033.66
2018-02-14T20:05:34.191Z,99029.61
2018-02-14T20:08:01.631Z,99034.05
2018-02-14T20:10:29.048Z,99038.59
2018-02-14T20:12:56.460Z,99027.70
2018-02-14T20:15:24.507Z,99019.53
2018-02-14T20:17:52.928Z,99017.73
2018-02-14T20:20:20.382Z,99018.84
2018-02-14T20:22:47.797Z,99010.31
2018-02-14T20:25:15.230Z,99010.20
2018-02-14T20:27:42.642Z,99020.71
2018-02-14T20:30:10.103Z,99015.38
2018-02-14T20:32:37.574Z,99019.22
2018-02-14T20:35:05.002Z,99025.13
2018-02-14T20:37:32.421Z,99030.17
2018-02-14T20:39:59.877Z,99026.17
2018-02-14T20:42:27.289Z,99028.55
2018-02-14T20:44:55.322Z,99023.02
2018-02-14T20:47:22.743Z,99018.66
2018-02-14T20:49:50.185Z,99025.94
2018-02-14T20:52:17.629Z,99020.03
2018-02-14T20:54:45.074Z,99029.80
2018-02-14T20:57:12.498Z,99023.65
2018-02-14T20:59:39.936Z,99036.29
2018-02-14T21:02:07.392Z,99038.20
2018-02-14T21:04:34.837Z,99047.18
2018-02-14T21:07:02.255Z,99047.20
2018-02-14T21:09:29.673Z,99047.85
2018-02-14T21:11:57.126Z,99043.25
2018-02-14T21:14:24.549Z,99035.49
2018-02-14T21:16:51.993Z,99037.94
2018-02-14T21:19:19.414Z,99031.77
2018-02-14T21:21:46.891Z,99030.81
2018-02-14T21:24:14.312Z,99031.23
2018-02-14T21:26:41.816Z,99025.56
2018-02-14T21:29:09.227Z,99021.16
2018-02-14T21:31:36.709Z,99028.95
2018-02-14T21:34:04.158Z,99024.72
2018-02-14T21:36:31.586Z,99024.77
2018-02-14T21:38:59.026Z,99019.34
2018-02-14T21:41:26.883Z,99035.67
2018-02-14T21:43:54.317Z,99026.16
2018-02-14T21:46:24.612Z,99034.12
2018-02-14T21:48:52.053Z,99021.28
2018-02-14T21:51:19.485Z,99022.73
2018-02-14T21:53:47.011Z,99015.38
2018-02-14T21:56:14.427Z,99003.27
2018-02-14T21:58:41.835Z,99000.32
2018-02-14T22:02:39.016Z,98995.65
2018-02-14T22:05:06.437Z,98984.54
2018-02-14T22:07:33.848Z,98978.89
2018-02-14T22:10:01.271Z,98979.58
2018-02-14T22:12:28.693Z,98994.02
2018-02-14T22:14:56.105Z,98987.69
2018-02-14T22:17:23.523Z,98988.70
2018-02-14T22:19:50.933Z,98989.47
2018-02-14T22:22:18.354Z,98986.98
2018-02-14T22:24:45.764Z,98990.88
2018-02-14T22:27:13.181Z,98981.64
2018-02-14T22:29:40.592Z,98984.90
2018-02-14T22:32:08.007Z,98982.88
2018-02-14T22:34:35.412Z,98993.13
2018-02-14T22:37:02.825Z,98990.70
2018-02-14T22:39:30.244Z,98994.87
2018-02-14T22:41:58.680Z,98991.94
2018-02-14T22:44:26.099Z,98984.64
2018-02-14T22:46:53.530Z,98977.08
2018-02-14T22:49:20.946Z,98971.60
2018-02-14T22:51:48.360Z,98976.75
2018-02-14T22:54:15.764Z,98972.88
2018-02-14T22:56:43.184Z,98968.47
2018-02-14T22:59:10.601Z,98967.23
2018-02-14T23:01:38.014Z,98966.33
2018-02-14T23:04:05.417Z,98972.17
2018-02-14T23:06:32.842Z,98973.33
2018-02-14T23:09:00.252Z,98973.36
2018-02-14T23:11:27.682Z,98976.64
2018-02-14T23:13:55.093Z,98981.69
2018-02-14T23:16:22.508Z,98997.33
2018-02-14T23:18:49.922Z,98999.97
2018-02-14T23:21:17.334Z,98991.36
2018-02-14T23:23:44.769Z,98976.38
2018-02-14T23:26:12.169Z,98974.59
2018-02-14T23:28:39.592Z,98974.17
2018-02-14T23:31:07.008Z,98964.67
2018-02-14T23:33:34.425Z,98963.91
2018-02-14T23:36:01.827Z,98966.59
2018-02-14T23:38:29.242Z,98960.73
2018-02-14T23:40:56.653Z,98953.76
2018-02-14T23:43:24.072Z,98955.91
2018-02-14T23:45:51.493Z,98960.09
2018-02-14T23:48:18.904Z,98955.77
2018-02-14T23:50:46.316Z,98956.47
2018-02-14T23:53:13.733Z,98960.72
2018-02-14T23:55:41.140Z,98956.41
2018-02-14T23:58:08.561Z,98955.48
